createdAt,value
2019-05-03T00:02:27.048Z,23.30
2019-05-03T00:04:58.666Z,23.30
2019-05-03T00:07:27.913Z,23.30
2019-05-03T00:09:57.066Z,23.30
2019-05-03T00:12:26.232Z,23.30
2019-05-03T00:15:02.851Z,23.30
2019-05-03T00:17:32.501Z,23.30
2019-05-03T00:20:02.322Z,23.30
2019-05-03T00:22:32.386Z,23.40
2019-05-03T00:25:06.037Z,23.40
2019-05-03T00:27:32.714Z,23.40
2019-05-03T00:30:02.824Z,23.40
2019-05-03T00:32:33.418Z,23.30
2019-05-03T00:35:11.926Z,23.30
2019-05-03T00:37:45.472Z,23.30
2019-05-03T00:40:16.313Z,23.30
2019-05-03T00:42:45.628Z,23.30
2019-05-03T00:45:14.810Z,23.30
2019-05-03T00:47:44.043Z,23.30
2019-05-03T00:50:13.188Z,23.30
2019-05-03T00:52:42.432Z,23.20
2019-05-03T00:55:16.893Z,23.30
2019-05-03T00:57:43.579Z,23.30
2019-05-03T01:00:12.760Z,23.30
2019-05-03T01:02:42.362Z,23.30
2019-05-03T01:05:12.041Z,23.30
2019-05-03T01:07:42.403Z,23.30
2019-05-03T01:10:12.503Z,23.30
2019-05-03T01:12:41.732Z,23.30
2019-05-03T01:15:32.270Z,23.20
2019-05-03T01:18:03.167Z,23.30
2019-05-03T01:20:32.307Z,23.30
2019-05-03T01:23:02.090Z,23.30
2019-05-03T01:25:35.125Z,23.40
2019-05-03T01:28:02.320Z,23.40
2019-05-03T01:30:32.088Z,23.40
2019-05-03T01:33:02.791Z,23.30
2019-05-03T01:35:32.384Z,23.30
2019-05-03T01:38:02.561Z,23.20
2019-05-03T01:40:32.581Z,23.20
2019-05-03T01:43:02.353Z,23.20
2019-05-03T01:45:31.937Z,23.20
2019-05-03T01:48:03.572Z,23.20
2019-05-03T01:50:40.195Z,23.30
2019-05-03T01:53:27.566Z,23.20
2019-05-03T01:55:56.755Z,23.20
2019-05-03T01:58:26.008Z,23.20
2019-05-03T02:01:15.068Z,23.20
2019-05-03T02:03:48.447Z,23.20
2019-05-03T02:06:17.689Z,23.20
2019-05-03T02:08:46.843Z,23.20
2019-05-03T02:11:16.047Z,23.20
2019-05-03T02:13:45.308Z,23.20
2019-05-03T02:16:14.511Z,23.20
2019-05-03T02:18:43.716Z,23.20
2019-05-03T02:21:12.991Z,23.30
2019-05-03T02:23:42.660Z,23.30
2019-05-03T02:26:12.959Z,23.30
2019-05-03T02:28:42.268Z,23.30
2019-05-03T02:31:13.699Z,23.30
2019-05-03T02:33:43.458Z,23.20
2019-05-03T02:36:13.603Z,23.20
2019-05-03T02:38:44.240Z,23.20
2019-05-03T02:41:13.706Z,23.20
2019-05-03T02:43:47.385Z,23.20
2019-05-03T02:46:36.080Z,23.20
2019-05-03T02:49:16.208Z,23.20
2019-05-03T02:51:46.197Z,23.20
2019-05-03T02:54:15.741Z,23.20
2019-05-03T02:56:46.026Z,23.20
2019-05-03T02:59:15.961Z,23.20
2019-05-03T03:01:46.497Z,23.20
2019-05-03T03:04:16.093Z,23.20
2019-05-03T03:06:45.561Z,23.20
2019-05-03T03:09:16.520Z,23.20
2019-05-03T03:11:46.027Z,23.20
2019-05-03T03:14:16.807Z,23.10
2019-05-03T03:16:49.483Z,23.20
2019-05-03T03:19:21.789Z,23.20
2019-05-03T03:21:51.544Z,23.10
2019-05-03T03:24:20.695Z,23.10
2019-05-03T03:26:50.120Z,23.10
2019-05-03T03:29:20.465Z,23.10
2019-05-03T03:32:17.557Z,23.10
2019-05-03T03:34:55.464Z,23.10
2019-05-03T03:37:20.137Z,23.10
2019-05-03T03:39:49.370Z,23.10
2019-05-03T03:42:19.023Z,23.10
2019-05-03T03:44:48.296Z,23.10
2019-05-03T03:47:17.472Z,23.10
2019-05-03T03:49:46.726Z,23.10
2019-05-03T03:52:16.155Z,23.10
2019-05-03T03:54:45.790Z,23.10
2019-05-03T03:57:16.419Z,23.10
2019-05-03T03:59:45.787Z,23.10
2019-05-03T04:02:15.929Z,23.10
2019-05-03T04:04:45.481Z,23.10
2019-05-03T04:07:15.724Z,23.10
2019-05-03T04:09:45.862Z,23.10
2019-05-03T04:12:16.426Z,23.10
2019-05-03T04:14:47.600Z,23.10
2019-05-03T04:17:21.317Z,23.10
2019-05-03T04:19:55.779Z,23.10
2019-05-03T04:22:25.405Z,23.20
2019-05-03T04:24:55.381Z,23.20
2019-05-03T04:27:27.478Z,23.10
2019-05-03T04:29:55.792Z,23.20
2019-05-03T04:32:28.744Z,23.10
2019-05-03T04:34:56.157Z,23.10
2019-05-03T04:37:26.623Z,23.10
2019-05-03T04:39:56.324Z,23.10
2019-05-03T04:42:25.922Z,23.10
2019-05-03T04:44:56.270Z,23.10
2019-05-03T04:47:26.509Z,23.10
2019-05-03T04:49:56.004Z,23.10
2019-05-03T04:52:26.094Z,23.20
2019-05-03T04:54:57.132Z,23.20
2019-05-03T04:57:40.069Z,23.20
2019-05-03T04:59:57.710Z,23.10
2019-05-03T05:02:26.887Z,23.10
2019-05-03T05:04:56.120Z,23.10
2019-05-03T05:07:26.143Z,23.20
2019-05-03T05:09:56.346Z,23.20
2019-05-03T05:12:25.968Z,23.20
2019-05-03T05:14:56.335Z,23.20
2019-05-03T05:17:28.698Z,23.20
2019-05-03T05:20:02.493Z,23.20
2019-05-03T05:22:35.338Z,23.30
2019-05-03T05:25:07.858Z,23.30
2019-05-03T05:27:57.136Z,23.40
2019-05-03T05:30:26.108Z,23.30
2019-05-03T05:32:55.384Z,23.20
2019-05-03T05:35:24.878Z,23.20
2019-05-03T05:37:54.665Z,23.20
2019-05-03T05:40:24.578Z,23.20
2019-05-03T05:42:54.549Z,23.20
2019-05-03T05:45:24.935Z,23.20
2019-05-03T05:47:55.732Z,23.20
2019-05-03T05:50:29.411Z,23.10
2019-05-03T05:53:00.472Z,22.90
2019-05-03T05:55:34.525Z,22.80
2019-05-03T05:58:09.325Z,22.60
2019-05-03T06:00:56.630Z,22.60
2019-05-03T06:03:25.863Z,22.50
2019-05-03T06:05:56.780Z,22.50
2019-05-03T06:08:44.543Z,22.50
2019-05-03T06:11:20.751Z,22.50
2019-05-03T06:14:06.636Z,22.40
2019-05-03T06:16:37.470Z,22.40
2019-05-03T06:19:11.068Z,22.40
2019-05-03T06:21:41.940Z,22.40
2019-05-03T06:24:14.640Z,22.40
2019-05-03T06:26:45.290Z,22.30
2019-05-03T06:29:14.974Z,22.30
2019-05-03T06:32:05.850Z,22.20
2019-05-03T06:34:35.451Z,22.30
2019-05-03T06:37:06.772Z,22.30
2019-05-03T06:39:36.005Z,22.30
2019-05-03T06:42:05.309Z,22.30
2019-05-03T06:44:35.244Z,22.20
2019-05-03T06:47:08.708Z,22.30
2019-05-03T06:49:39.204Z,22.20
2019-05-03T06:52:06.289Z,22.20
2019-05-03T06:54:37.911Z,22.20
2019-05-03T06:57:09.646Z,22.20
2019-05-03T06:59:46.828Z,22.20
2019-05-03T07:02:25.193Z,22.20
2019-05-03T07:05:05.196Z,22.20
2019-05-03T07:07:45.351Z,22.10
2019-05-03T07:10:16.972Z,22.10
2019-05-03T07:12:59.834Z,22.10
2019-05-03T07:15:29.225Z,22.10
2019-05-03T07:17:59.802Z,22.10
2019-05-03T07:20:30.676Z,22.10
2019-05-03T07:22:59.946Z,21.90
2019-05-03T07:25:29.229Z,21.90
2019-05-03T07:27:58.527Z,21.80
2019-05-03T07:30:27.886Z,21.80
2019-05-03T07:32:58.902Z,21.70
2019-05-03T07:35:28.302Z,21.70
2019-05-03T07:37:59.492Z,21.70
2019-05-03T07:40:29.560Z,21.90
2019-05-03T07:42:58.772Z,21.90
2019-05-03T07:45:27.957Z,21.90
2019-05-03T07:47:57.211Z,21.90
2019-05-03T07:50:26.403Z,21.90
2019-05-03T07:52:55.921Z,21.90
2019-05-03T07:55:45.672Z,22.00
2019-05-03T07:58:28.986Z,22.00
2019-05-03T08:01:06.402Z,22.00
2019-05-03T08:03:30.872Z,22.00
2019-05-03T08:06:00.090Z,22.10
2019-05-03T08:08:29.453Z,22.10
2019-05-03T08:10:58.668Z,22.10
2019-05-03T08:13:27.815Z,22.10
2019-05-03T08:15:57.122Z,22.10
2019-05-03T08:18:26.415Z,22.10
2019-05-03T08:20:55.820Z,22.10
2019-05-03T08:23:29.857Z,22.20
2019-05-03T08:25:57.843Z,22.20
2019-05-03T08:28:27.236Z,22.20
2019-05-03T08:30:58.466Z,22.30
2019-05-03T08:33:29.368Z,22.30
2019-05-03T08:35:58.614Z,22.30
2019-05-03T08:38:27.854Z,22.30
2019-05-03T08:40:58.691Z,22.40
2019-05-03T08:43:27.961Z,22.40
2019-05-03T08:45:58.274Z,22.40
2019-05-03T08:48:28.485Z,22.40
2019-05-03T08:50:57.805Z,22.40
2019-05-03T08:53:28.121Z,22.40
2019-05-03T08:55:57.399Z,22.40
2019-05-03T08:58:26.627Z,22.40
2019-05-03T09:00:55.811Z,22.50
2019-05-03T09:03:25.085Z,22.50
2019-05-03T09:05:56.439Z,22.50
2019-05-03T09:08:25.249Z,22.50
2019-05-03T09:10:59.588Z,22.50
2019-05-03T09:13:30.436Z,22.50
2019-05-03T09:15:59.732Z,22.50
2019-05-03T09:18:28.967Z,22.50
2019-05-03T09:20:58.200Z,22.50
2019-05-03T09:23:27.394Z,22.50
2019-05-03T09:25:56.571Z,22.60
2019-05-03T09:28:28.891Z,22.60
2019-05-03T09:30:57.587Z,22.60
2019-05-03T09:33:28.004Z,22.60
2019-05-03T09:35:57.358Z,22.60
2019-05-03T09:38:26.651Z,22.60
2019-05-03T09:40:55.821Z,22.60
2019-05-03T09:43:25.202Z,22.70
2019-05-03T09:45:55.435Z,22.70
2019-05-03T09:48:25.455Z,22.70
2019-05-03T09:50:55.658Z,22.70
2019-05-03T09:53:26.779Z,22.70
2019-05-03T09:55:56.153Z,22.70
2019-05-03T09:58:26.348Z,22.70
2019-05-03T10:00:55.810Z,22.70
2019-05-03T10:03:25.050Z,22.70
2019-05-03T10:05:55.408Z,22.70
2019-05-03T10:08:25.987Z,22.70
2019-05-03T10:11:05.311Z,22.70
2019-05-03T10:13:35.923Z,22.70
2019-05-03T10:16:06.180Z,22.70
2019-05-03T10:18:35.761Z,22.80
2019-05-03T10:21:05.603Z,22.80
2019-05-03T10:23:37.676Z,22.80
2019-05-03T10:26:06.901Z,22.70
2019-05-03T10:28:37.082Z,22.70
2019-05-03T10:31:07.781Z,22.70
2019-05-03T10:33:41.856Z,22.70
2019-05-03T10:36:10.992Z,22.70
2019-05-03T10:38:40.232Z,22.60
2019-05-03T10:41:09.619Z,22.60
2019-05-03T10:43:38.851Z,22.60
2019-05-03T10:46:08.226Z,22.60
2019-05-03T10:48:37.573Z,22.60
2019-05-03T10:51:06.950Z,22.60
2019-05-03T10:53:38.003Z,22.50
2019-05-03T10:56:24.548Z,22.50
2019-05-03T10:58:54.968Z,22.50
2019-05-03T11:01:29.140Z,22.50
2019-05-03T11:03:58.455Z,22.50
2019-05-03T11:06:27.717Z,22.40
2019-05-03T11:08:59.521Z,22.40
2019-05-03T11:11:29.007Z,22.40
2019-05-03T11:13:58.348Z,22.40
2019-05-03T11:16:28.860Z,22.50
2019-05-03T11:18:58.198Z,22.60
2019-05-03T11:21:30.879Z,22.70
2019-05-03T11:23:58.417Z,22.70
2019-05-03T11:26:27.620Z,22.80
2019-05-03T11:29:00.518Z,22.80
2019-05-03T11:31:29.445Z,22.80
2019-05-03T11:34:00.500Z,22.80
2019-05-03T11:36:46.658Z,22.90
2019-05-03T11:39:15.940Z,22.90
2019-05-03T11:41:46.876Z,22.90
2019-05-03T11:44:35.867Z,22.90
2019-05-03T11:47:06.109Z,22.90
2019-05-03T11:49:36.445Z,23.00
2019-05-03T11:52:06.517Z,23.00
2019-05-03T11:54:36.139Z,23.00
2019-05-03T11:57:10.062Z,23.00
2019-05-03T11:59:39.315Z,23.10
2019-05-03T12:02:26.018Z,23.10
2019-05-03T12:04:59.743Z,23.10
2019-05-03T12:07:39.487Z,23.10
2019-05-03T12:10:16.779Z,23.10
2019-05-03T12:12:49.248Z,23.10
2019-05-03T12:15:19.199Z,23.10
2019-05-03T12:17:58.812Z,23.10
2019-05-03T12:20:28.840Z,23.10
2019-05-03T12:23:05.449Z,23.20
2019-05-03T12:25:33.507Z,23.20
2019-05-03T12:28:05.917Z,23.20
2019-05-03T12:30:35.506Z,23.20
2019-05-03T12:33:05.923Z,23.20
2019-05-03T12:35:36.594Z,23.30
2019-05-03T12:38:05.850Z,23.30
2019-05-03T12:40:35.235Z,23.30
2019-05-03T12:43:06.111Z,23.40
2019-05-03T12:45:35.683Z,23.40
2019-05-03T12:48:06.319Z,23.40
2019-05-03T12:50:35.538Z,23.40
2019-05-03T12:53:05.100Z,23.40
2019-05-03T12:55:35.585Z,23.40
2019-05-03T12:58:06.608Z,23.40
2019-05-03T13:00:46.711Z,23.40
2019-05-03T13:03:18.706Z,23.40
2019-05-03T13:05:47.899Z,23.40
2019-05-03T13:08:36.219Z,23.40
2019-05-03T13:11:05.845Z,23.40
2019-05-03T13:13:36.018Z,23.40
2019-05-03T13:16:05.671Z,23.40
2019-05-03T13:18:35.530Z,23.40
2019-05-03T13:21:05.986Z,23.50
2019-05-03T13:23:36.517Z,23.50
2019-05-03T13:26:06.995Z,23.50
2019-05-03T13:28:42.575Z,23.60
2019-05-03T13:31:12.101Z,23.60
2019-05-03T13:33:41.339Z,23.60
2019-05-03T13:36:10.809Z,23.60
2019-05-03T13:38:40.019Z,23.60
2019-05-03T13:41:09.260Z,23.60
2019-05-03T13:43:38.524Z,23.70
2019-05-03T13:46:08.337Z,23.70
2019-05-03T13:48:45.430Z,23.70
2019-05-03T13:51:09.641Z,23.70
2019-05-03T13:53:38.905Z,23.70
2019-05-03T13:56:08.181Z,23.80
2019-05-03T13:58:37.471Z,23.70
2019-05-03T14:01:06.817Z,23.70
2019-05-03T14:03:36.020Z,23.70
2019-05-03T14:06:08.396Z,23.80
2019-05-03T14:08:36.421Z,23.80
2019-05-03T14:11:05.824Z,23.80
2019-05-03T14:13:35.521Z,23.80
2019-05-03T14:16:05.853Z,23.80
2019-05-03T14:18:35.608Z,23.80
2019-05-03T14:21:12.616Z,23.80
2019-05-03T14:23:59.466Z,23.90
2019-05-03T14:26:28.887Z,23.90
2019-05-03T14:28:58.309Z,23.90
2019-05-03T14:31:27.543Z,24.00
2019-05-03T14:33:56.737Z,24.00
2019-05-03T14:36:25.963Z,24.10
2019-05-03T14:38:55.329Z,24.10
2019-05-03T14:41:25.585Z,24.10
2019-05-03T14:43:56.859Z,24.10
2019-05-03T14:46:32.552Z,24.00
2019-05-03T14:48:58.049Z,24.10
2019-05-03T14:51:27.335Z,24.00
2019-05-03T14:53:57.239Z,24.00
2019-05-03T14:56:28.225Z,24.10
2019-05-03T14:59:15.577Z,24.00
2019-05-03T15:01:46.470Z,24.00
2019-05-03T15:04:15.821Z,24.00
2019-05-03T15:06:46.335Z,23.90
2019-05-03T15:09:18.967Z,24.00
2019-05-03T15:11:47.207Z,24.00
2019-05-03T15:14:16.397Z,24.00
2019-05-03T15:16:45.680Z,24.00
2019-05-03T15:19:15.849Z,23.90
2019-05-03T15:21:45.309Z,24.00
2019-05-03T15:24:14.662Z,24.00
2019-05-03T15:26:45.447Z,24.00
2019-05-03T15:29:15.538Z,24.00
2019-05-03T15:31:44.915Z,24.10
2019-05-03T15:34:15.251Z,24.10
2019-05-03T15:36:45.118Z,24.10
2019-05-03T15:39:15.443Z,24.10
2019-05-03T15:41:45.580Z,24.10
2019-05-03T15:44:16.397Z,24.00
2019-05-03T15:46:54.537Z,24.10
2019-05-03T15:49:27.379Z,24.10
2019-05-03T15:51:56.181Z,24.00
2019-05-03T15:54:25.459Z,23.90
2019-05-03T15:56:54.600Z,23.90
2019-05-03T15:59:24.404Z,23.90
2019-05-03T16:01:55.341Z,23.80
2019-05-03T16:04:26.491Z,23.80
2019-05-03T16:06:55.681Z,23.80
2019-05-03T16:12:05.079Z,23.80
2019-05-03T16:14:35.681Z,23.80
2019-05-03T16:17:04.920Z,23.80
2019-05-03T16:19:35.456Z,23.80
2019-05-03T16:22:04.938Z,23.80
2019-05-03T16:24:35.528Z,23.70
2019-05-03T16:27:18.377Z,23.80
2019-05-03T16:29:47.628Z,23.90
2019-05-03T16:32:16.792Z,23.90
2019-05-03T16:34:45.949Z,23.90
2019-05-03T16:37:15.173Z,23.90
2019-05-03T16:39:45.342Z,23.90
2019-05-03T16:42:15.490Z,23.90
2019-05-03T16:44:44.892Z,23.90
2019-05-03T16:47:15.669Z,23.90
2019-05-03T16:49:45.147Z,23.90
2019-05-03T16:52:14.683Z,23.90
2019-05-03T16:54:46.138Z,23.90
2019-05-03T16:57:17.424Z,23.90
2019-05-03T16:59:46.422Z,23.90
2019-05-03T17:02:17.485Z,23.80
2019-05-03T17:04:48.215Z,23.70
2019-05-03T17:07:19.026Z,23.60
2019-05-03T17:09:49.847Z,23.60
2019-05-03T17:12:37.951Z,23.50
2019-05-03T17:15:09.144Z,23.70
2019-05-03T17:17:38.703Z,23.70
2019-05-03T17:20:08.999Z,23.60
2019-05-03T17:22:39.039Z,23.50
2019-05-03T17:25:09.499Z,23.50
2019-05-03T17:27:39.899Z,23.40
2019-05-03T17:30:10.931Z,23.50
2019-05-03T17:32:40.296Z,23.60
2019-05-03T17:35:09.470Z,23.60
2019-05-03T17:37:38.773Z,23.80
2019-05-03T17:40:15.616Z,23.80
2019-05-03T17:42:55.742Z,23.60
2019-05-03T17:45:32.535Z,23.70
2019-05-03T17:48:01.723Z,23.60
2019-05-03T17:50:31.007Z,23.60
2019-05-03T17:53:10.847Z,23.50
2019-05-03T17:55:41.750Z,23.50
2019-05-03T17:58:18.528Z,23.50
2019-05-03T18:00:49.376Z,23.50
2019-05-03T18:03:19.367Z,23.50
2019-05-03T18:05:50.272Z,23.50
2019-05-03T18:08:38.816Z,23.50
2019-05-03T18:11:09.715Z,23.50
2019-05-03T18:13:38.929Z,23.50
2019-05-03T18:16:08.099Z,23.40
2019-05-03T18:18:37.281Z,23.40
2019-05-03T18:21:06.444Z,23.40
2019-05-03T18:23:35.615Z,23.40
2019-05-03T18:26:05.292Z,23.40
2019-05-03T18:28:35.632Z,23.40
2019-05-03T18:31:05.754Z,23.40
2019-05-03T18:33:35.976Z,23.40
2019-05-03T18:36:06.254Z,23.30
2019-05-03T18:38:37.075Z,23.30
2019-05-03T18:41:06.925Z,23.30
2019-05-03T18:43:37.736Z,23.30
2019-05-03T18:46:23.993Z,23.30
2019-05-03T18:48:55.037Z,23.30
2019-05-03T18:51:25.205Z,23.30
2019-05-03T18:53:54.556Z,23.20
2019-05-03T18:56:25.215Z,23.20
2019-05-03T18:58:54.516Z,23.20
2019-05-03T19:01:25.307Z,23.20
2019-05-03T19:03:57.472Z,23.20
2019-05-03T19:06:26.677Z,23.20
2019-05-03T19:09:09.718Z,23.20
2019-05-03T19:11:44.139Z,23.20
2019-05-03T19:14:21.163Z,23.20
2019-05-03T19:16:55.273Z,23.20
2019-05-03T19:19:38.408Z,23.20
2019-05-03T19:22:07.591Z,23.20
2019-05-03T19:24:36.784Z,23.20
2019-05-03T19:27:07.453Z,23.20
2019-05-03T19:29:36.748Z,23.10
2019-05-03T19:32:06.134Z,23.20
2019-05-03T19:34:47.759Z,23.20
2019-05-03T19:37:07.280Z,23.10
2019-05-03T19:39:36.492Z,23.10
2019-05-03T19:42:05.836Z,23.10
2019-05-03T19:44:36.877Z,23.10
2019-05-03T19:47:06.726Z,23.10
2019-05-03T19:49:37.341Z,23.10
2019-05-03T19:52:06.558Z,23.10
2019-05-03T19:54:36.525Z,23.10
2019-05-03T19:57:05.914Z,23.10
2019-05-03T19:59:51.749Z,23.10
2019-05-03T20:02:24.428Z,23.10
2019-05-03T20:05:11.598Z,23.10
2019-05-03T20:07:45.277Z,23.10
2019-05-03T20:10:14.985Z,23.10
2019-05-03T20:12:45.373Z,23.10
2019-05-03T20:15:14.603Z,23.10
2019-05-03T20:17:54.694Z,23.10
2019-05-03T20:20:15.453Z,23.10
2019-05-03T20:22:45.455Z,23.10
2019-05-03T20:25:15.749Z,23.10
2019-05-03T20:27:45.015Z,23.10
2019-05-03T20:30:14.995Z,23.10
2019-05-03T20:32:45.080Z,23.10
2019-05-03T20:35:18.761Z,23.00
2019-05-03T20:37:45.282Z,23.10
2019-05-03T20:40:15.618Z,23.10
2019-05-03T20:43:04.721Z,23.00
2019-05-03T20:45:35.578Z,23.10
2019-05-03T20:48:08.219Z,23.10
2019-05-03T20:50:37.518Z,23.00
2019-05-03T20:53:06.908Z,23.00
2019-05-03T20:55:36.249Z,23.00
2019-05-03T20:58:08.240Z,23.00
2019-05-03T21:00:36.331Z,23.00
2019-05-03T21:03:05.506Z,23.00
2019-05-03T21:05:37.263Z,23.00
2019-05-03T21:08:05.756Z,23.00
2019-05-03T21:10:34.985Z,23.00
2019-05-03T21:13:05.757Z,23.00
2019-05-03T21:15:39.564Z,23.00
2019-05-03T21:18:10.362Z,23.00
2019-05-03T21:20:57.730Z,23.00
2019-05-03T21:23:31.221Z,23.00
2019-05-03T21:26:12.459Z,23.00
2019-05-03T21:28:35.904Z,22.90
2019-05-03T21:31:05.542Z,23.00
2019-05-03T21:33:35.524Z,23.00
2019-05-03T21:36:04.868Z,22.90
2019-05-03T21:38:35.439Z,22.90
2019-05-03T21:41:06.049Z,23.00
2019-05-03T21:43:35.328Z,22.90
2019-05-03T21:46:06.300Z,22.90
2019-05-03T21:48:49.188Z,22.90
2019-05-03T21:51:18.600Z,22.90
2019-05-03T21:53:47.853Z,22.90
2019-05-03T21:56:17.027Z,22.90
2019-05-03T21:58:46.747Z,22.90
2019-05-03T22:01:16.078Z,22.90
2019-05-03T22:03:45.455Z,22.90
2019-05-03T22:06:16.872Z,22.90
2019-05-03T22:08:45.599Z,22.90
2019-05-03T22:11:14.980Z,22.90
2019-05-03T22:13:45.950Z,22.90
2019-05-03T22:16:25.848Z,22.90
2019-05-03T22:18:55.063Z,22.90
2019-05-03T22:21:36.879Z,22.90
2019-05-03T22:24:08.465Z,22.90
2019-05-03T22:26:54.654Z,22.90
2019-05-03T22:29:25.414Z,22.90
2019-05-03T22:31:55.089Z,22.90
2019-05-03T22:34:25.784Z,22.90
2019-05-03T22:36:55.253Z,22.90
2019-05-03T22:39:25.056Z,22.90
2019-05-03T22:41:54.496Z,22.90
2019-05-03T22:44:25.334Z,22.90
2019-05-03T22:46:55.498Z,22.90
2019-05-03T22:49:25.953Z,22.80
2019-05-03T22:51:56.508Z,22.90
2019-05-03T22:54:25.739Z,22.80
2019-05-03T22:56:55.566Z,22.90
2019-05-03T22:59:25.362Z,22.90
2019-05-03T23:01:54.908Z,22.90
2019-05-03T23:04:25.231Z,22.90
2019-05-03T23:06:55.467Z,22.90
2019-05-03T23:09:25.167Z,22.80
2019-05-03T23:11:55.312Z,22.80
2019-05-03T23:14:25.683Z,22.80
2019-05-03T23:16:55.020Z,22.90
2019-05-03T23:19:24.205Z,22.80
2019-05-03T23:21:55.005Z,22.80
2019-05-03T23:24:24.681Z,22.80
2019-05-03T23:26:54.087Z,22.80
2019-05-03T23:29:23.263Z,22.80
2019-05-03T23:31:52.486Z,22.80
2019-05-03T23:34:21.664Z,22.80
2019-05-03T23:36:50.857Z,22.80
2019-05-03T23:39:21.071Z,22.80
2019-05-03T23:41:50.251Z,22.80
2019-05-03T23:44:19.426Z,22.80
2019-05-03T23:47:02.479Z,22.90
2019-05-03T23:49:31.651Z,22.80
2019-05-03T23:52:08.648Z,22.80
2019-05-03T23:54:37.864Z,22.80
2019-05-03T23:57:07.039Z,22.80
2019-05-03T23:59:36.230Z,22.80
